Oella, Maryland
Current Conditions -  °F | °C
As of 12:54 AM on Saturday 20 Dec 2014 (Local Time) from KBWI Reporting Station
Clear Clear  
Wind Chill: 24°   Ceiling: Unl
Heat Index: 29°   Visibility: 10mi
Dew Point: 20°   Wind: 5mph
Humidity: 69%   Direction: 310°NW
Pressure: 30.23"   Gusts: NA
Location:  39.2601°N, 76.7979°W
Report Text: KBWI 200554Z 31004KT 10SM CLR M02/M07 A3023 RMK AO2 SLP238 T10171067 10006 21022 58003
Loading
Personal Weather Stations






























Interactive Weather Map New forecast layout! Learn more

10-Day Weather Forecast

Advertisements
Track Severe Weather on mobile